Airport Name : Campbell AAF

Other Name : Campbell AAF

ICAO : KHOP

IATA : HOP

FAA : HOP

Latitude : 36.668567

Longitude : -87.496183

Country : United States

Local Date and Time : 5/25/2018 5:59:00 AM

 

TAF (Terminal Aerodrome Forecast)

TAF KHOP 250800Z 2508/2614 VRB06KT 9999 FEW025 QNH2990INS BECMG 2515/2516 21009KT 8000 -SHRA FEW025 OVC075 QNH2988INS TEMPO 2517/2520 25012G18KT 6000 -TSRA BKN020CB OVC035 BECMG 2600/2601 VRB06KT 9999 NSW SCT030 BKN050 QNH2986INS TX30/2518Z TN18/2510Z

 

METAR (METeorological Aerodrome Report)

KHOP 251056Z AUTO 00000KT 10SM CLR 19/19 A3001 RMK AO2 SLP159 T01920189

KHOP 250956Z AUTO 00000KT 10SM CLR 20/19 A3001 RMK AO2 SLP159 T01980190

KHOP 250856Z AUTO 05003KT 10SM CLR 19/19 A3001 RMK AO2 SLP159 T01890189 57011

KHOP 250756Z AUTO 02003KT 10SM CLR 19/19 A3002 RMK AO2 SLP163 T01940194